Time;durP1;ratioP1;P1;durP2;ratioP2;P2;SDS_P1;SDS_P2;PMS_P1;PMS_P2;Temp;Humidity;BMP_temperature;BMP_pressure;BME280_temperature;BME280_humidity;BME280_pressure;Samples;Min_cycle;Max_cycle;Signal;HPM_P1;HPM_P2
2024/03/19 00:01:45;;;;;;;15.05;7.70;;;10.50;99.90;;;;;;4965460;28;20049;-70
2024/03/19 00:04:11;;;;;;;16.52;7.53;;;10.50;99.90;;;;;;4981546;28;20034;-70
2024/03/19 00:06:37;;;;;;;12.65;6.60;;;10.40;99.90;;;;;;4964338;28;20027;-71
2024/03/19 00:09:07;;;;;;;17.00;6.90;;;10.30;99.90;;;;;;4962455;28;20374;-70
2024/03/19 00:11:33;;;;;;;16.55;5.60;;;10.30;99.90;;;;;;4982823;28;20034;-70
2024/03/19 00:13:59;;;;;;;17.88;7.57;;;10.30;99.90;;;;;;4960375;28;20050;-70
2024/03/19 00:16:25;;;;;;;16.63;7.68;;;10.30;99.90;;;;;;4953816;28;20031;-70
2024/03/19 00:18:50;;;;;;;13.73;7.72;;;10.30;99.90;;;;;;4962583;28;20405;-70
2024/03/19 00:21:16;;;;;;;10.90;6.40;;;10.20;99.90;;;;;;4960620;28;20048;-70
2024/03/19 00:23:42;;;;;;;7.50;4.38;;;9.90;99.90;;;;;;4976630;28;20396;-70
2024/03/19 00:26:08;;;;;;;12.27;6.18;;;9.90;99.90;;;;;;4963661;28;20138;-70
2024/03/19 00:28:33;;;;;;;12.60;6.38;;;9.80;99.90;;;;;;4964987;28;20039;-70
2024/03/19 00:31:02;;;;;;;15.05;7.75;;;9.80;99.90;;;;;;4954315;28;20042;-71
2024/03/19 00:33:28;;;;;;;15.15;7.25;;;9.90;99.90;;;;;;4965859;28;20031;-70
2024/03/19 00:35:55;;;;;;;18.75;7.05;;;9.90;99.90;;;;;;4962557;28;20098;-71
2024/03/19 00:38:22;;;;;;;14.82;6.95;;;9.90;99.90;;;;;;4967376;28;20085;-70
2024/03/19 00:40:48;;;;;;;16.10;7.25;;;9.90;99.90;;;;;;4969989;28;20033;-71
2024/03/19 00:43:14;;;;;;;16.77;6.60;;;9.90;99.90;;;;;;4963559;28;20030;-71
2024/03/19 00:45:40;;;;;;;20.52;7.30;;;9.80;99.90;;;;;;4975741;28;20039;-70
2024/03/19 00:48:06;;;;;;;14.30;5.57;;;9.80;99.90;;;;;;4967401;28;20031;-70
2024/03/19 00:50:32;;;;;;;13.52;6.45;;;9.80;99.90;;;;;;4968029;28;20038;-70
2024/03/19 00:52:58;;;;;;;13.32;6.60;;;9.70;99.90;;;;;;4968500;28;20583;-70
2024/03/19 00:55:24;;;;;;;15.18;6.10;;;9.80;99.90;;;;;;4966068;28;20039;-70
2024/03/19 00:57:50;;;;;;;13.90;6.60;;;9.80;99.90;;;;;;4965878;28;20027;-70
2024/03/19 01:00:16;;;;;;;18.10;7.00;;;9.80;99.90;;;;;;4967916;28;20054;-70
2024/03/19 01:02:43;;;;;;;15.95;6.50;;;9.80;99.90;;;;;;4963714;28;20026;-71
2024/03/19 01:05:09;;;;;;;16.58;7.80;;;9.70;99.90;;;;;;4968965;28;20027;-70
2024/03/19 01:07:42;;;;;;;24.40;7.57;;;9.70;99.90;;;;;;4967896;28;20018;-70
2024/03/19 01:10:12;;;;;;;13.88;6.40;;;9.70;99.90;;;;;;4943007;28;20058;-71
2024/03/19 01:12:41;;;;;;;16.73;6.10;;;9.70;99.90;;;;;;4974597;28;20100;-70
2024/03/19 01:15:08;;;;;;;12.63;6.70;;;9.70;99.90;;;;;;4964438;28;20085;-71
2024/03/19 01:17:35;;;;;;;13.52;6.85;;;9.60;99.90;;;;;;4964740;28;20023;-70
2024/03/19 01:20:09;;;;;;;18.75;7.88;;;9.60;99.90;;;;;;4970796;28;20165;-70
2024/03/19 01:22:37;;;;;;;19.23;6.75;;;9.60;99.90;;;;;;4967354;28;20121;-71
2024/03/19 01:25:06;;;;;;;20.85;7.35;;;9.60;99.90;;;;;;4961982;28;20505;-70
2024/03/19 01:27:35;;;;;;;23.15;7.97;;;9.50;99.90;;;;;;4975781;28;20133;-71
2024/03/19 01:30:02;;;;;;;19.27;7.45;;;9.50;99.90;;;;;;4970358;28;20026;-71
2024/03/19 01:32:28;;;;;;;14.85;7.03;;;9.50;99.90;;;;;;4951226;28;20027;-71
2024/03/19 01:34:54;;;;;;;21.00;8.23;;;9.40;99.90;;;;;;4979002;28;20041;-71
2024/03/19 01:37:20;;;;;;;16.10;7.60;;;9.40;99.90;;;;;;4965405;28;20037;-70
2024/03/19 01:39:46;;;;;;;19.70;8.02;;;9.30;99.90;;;;;;4962355;28;20027;-70
2024/03/19 01:42:12;;;;;;;17.98;8.68;;;9.30;99.90;;;;;;4967601;28;20035;-71
2024/03/19 01:44:38;;;;;;;17.05;7.47;;;9.30;99.90;;;;;;4966907;28;20029;-71
2024/03/19 01:47:04;;;;;;;18.33;8.18;;;9.30;99.90;;;;;;4977446;28;20030;-72
2024/03/19 01:49:30;;;;;;;15.57;7.70;;;9.30;99.90;;;;;;4966604;28;20605;-71
2024/03/19 01:51:58;;;;;;;13.65;7.80;;;9.30;99.90;;;;;;4975077;28;20117;-71
2024/03/19 01:54:25;;;;;;;14.25;6.38;;;9.30;99.90;;;;;;4960766;28;20440;-71
2024/03/19 01:56:51;;;;;;;21.58;7.90;;;9.30;99.90;;;;;;4959319;28;20031;-72
2024/03/19 01:59:17;;;;;;;16.80;8.43;;;9.20;99.90;;;;;;4964091;28;20149;-71
2024/03/19 02:01:44;;;;;;;17.33;8.30;;;9.20;99.90;;;;;;4960716;28;20034;-71
2024/03/19 02:04:10;;;;;;;17.23;8.23;;;9.20;99.90;;;;;;4965503;28;20149;-72
2024/03/19 02:06:36;;;;;;;19.10;9.07;;;9.20;99.90;;;;;;4971211;28;20045;-71
2024/03/19 02:09:12;;;;;;;15.38;7.47;;;9.30;99.90;;;;;;4971880;28;20073;-71
2024/03/19 02:11:38;;;;;;;16.85;8.68;;;9.20;99.90;;;;;;4971926;28;20061;-71
2024/03/19 02:14:05;;;;;;;15.27;8.45;;;9.20;99.90;;;;;;4973686;28;20054;-71
2024/03/19 02:16:31;;;;;;;16.85;8.75;;;9.20;99.90;;;;;;4964203;28;20493;-71
2024/03/19 02:19:01;;;;;;;19.38;7.22;;;9.20;99.90;;;;;;4972027;28;20027;-71
2024/03/19 02:21:28;;;;;;;18.77;7.70;;;9.10;99.90;;;;;;4965282;28;20039;-71
2024/03/19 02:23:56;;;;;;;17.77;9.23;;;9.10;99.90;;;;;;4981643;28;20375;-71
2024/03/19 02:26:24;;;;;;;17.33;8.20;;;9.00;99.90;;;;;;4965196;28;20035;-71
2024/03/19 02:28:50;;;;;;;15.05;7.82;;;9.10;99.90;;;;;;4984240;28;20019;-71
2024/03/19 02:31:16;;;;;;;16.27;8.90;;;9.00;99.90;;;;;;4964056;28;20506;-71
2024/03/19 02:33:42;;;;;;;20.90;8.80;;;9.00;99.90;;;;;;4964428;28;20039;-71
2024/03/19 02:36:08;;;;;;;21.58;8.93;;;9.00;99.90;;;;;;4978100;28;20034;-71
2024/03/19 02:38:33;;;;;;;16.05;8.00;;;8.90;99.90;;;;;;4981699;28;20027;-71
2024/03/19 02:40:59;;;;;;;14.55;8.07;;;8.90;99.90;;;;;;4968487;28;20027;-73
2024/03/19 02:43:25;;;;;;;16.20;7.88;;;8.90;99.90;;;;;;4969212;28;20027;-72
2024/03/19 02:45:51;;;;;;;15.73;8.07;;;8.80;99.90;;;;;;4971567;28;20035;-71
2024/03/19 02:48:19;;;;;;;14.60;6.18;;;8.80;99.90;;;;;;4984763;28;20030;-71
2024/03/19 02:50:45;;;;;;;16.98;7.47;;;8.70;99.90;;;;;;4966786;28;20489;-71
2024/03/19 02:53:11;;;;;;;17.63;8.27;;;8.70;99.90;;;;;;4970809;28;20038;-71
2024/03/19 02:55:37;;;;;;;20.75;9.75;;;8.70;99.90;;;;;;4971742;28;20032;-71
2024/03/19 02:58:04;;;;;;;17.48;6.65;;;8.70;99.90;;;;;;4980417;28;20122;-71
2024/03/19 03:00:30;;;;;;;17.83;8.18;;;8.70;99.90;;;;;;4968712;28;20023;-71
2024/03/19 03:02:56;;;;;;;14.88;7.80;;;8.70;99.90;;;;;;4982079;28;20092;-71
2024/03/19 03:05:21;;;;;;;11.63;6.40;;;8.70;99.90;;;;;;4964121;28;20117;-71
2024/03/19 03:07:47;;;;;;;12.98;7.20;;;8.70;99.90;;;;;;4971380;28;20026;-71
2024/03/19 03:10:13;;;;;;;17.65;8.82;;;8.70;99.90;;;;;;4963489;28;20039;-71
2024/03/19 03:12:39;;;;;;;17.42;8.50;;;8.60;99.90;;;;;;4980957;28;20019;-71
2024/03/19 03:15:06;;;;;;;14.80;7.60;;;8.60;99.90;;;;;;4963469;28;20147;-71
2024/03/19 03:17:32;;;;;;;14.13;7.05;;;8.60;99.90;;;;;;4964134;28;20054;-72
2024/03/19 03:19:59;;;;;;;19.80;7.97;;;8.60;99.90;;;;;;4972299;28;20125;-72
2024/03/19 03:22:24;;;;;;;13.38;6.75;;;8.60;99.90;;;;;;4966612;28;20030;-72
2024/03/19 03:24:50;;;;;;;9.98;6.20;;;8.60;99.90;;;;;;4969064;28;20491;-72
2024/03/19 03:27:17;;;;;;;17.95;8.98;;;8.50;99.90;;;;;;4979819;28;20125;-70
2024/03/19 03:29:43;;;;;;;18.33;6.93;;;8.60;99.90;;;;;;4962190;28;20113;-71
2024/03/19 03:32:09;;;;;;;11.13;5.78;;;8.60;99.90;;;;;;4973235;28;20102;-71
2024/03/19 03:34:36;;;;;;;22.50;8.60;;;8.50;99.90;;;;;;4976161;28;20027;-71
2024/03/19 03:37:06;;;;;;;19.33;8.65;;;8.50;99.90;;;;;;4971359;28;20042;-71
2024/03/19 03:39:32;;;;;;;16.77;7.22;;;8.50;99.90;;;;;;4963405;28;20027;-71
2024/03/19 03:41:57;;;;;;;17.90;7.00;;;8.40;99.90;;;;;;4978508;28;20105;-71
2024/03/19 03:44:23;;;;;;;13.90;8.13;;;8.40;99.90;;;;;;4968004;28;20031;-71
2024/03/19 03:46:49;;;;;;;19.67;8.27;;;8.40;99.90;;;;;;4963278;28;20070;-71
2024/03/19 03:49:15;;;;;;;20.92;8.05;;;8.40;99.90;;;;;;4964071;28;20027;-71
2024/03/19 03:51:42;;;;;;;9.75;5.05;;;8.40;99.90;;;;;;4975660;28;20026;-72
2024/03/19 03:54:07;;;;;;;10.10;4.68;;;7.90;99.90;;;;;;4973804;28;20042;-71
2024/03/19 03:56:33;;;;;;;14.95;5.50;;;7.80;99.90;;;;;;4970984;28;20035;-72
2024/03/19 03:58:59;;;;;;;19.63;7.25;;;7.90;99.90;;;;;;4969546;28;20031;-71
2024/03/19 04:01:25;;;;;;;11.13;5.78;;;7.90;99.90;;;;;;4974359;28;20023;-71
2024/03/19 04:03:50;;;;;;;10.75;5.80;;;8.00;99.90;;;;;;4972061;28;20029;-71
2024/03/19 04:06:16;;;;;;;10.73;6.25;;;8.00;99.90;;;;;;4973704;28;20086;-71
2024/03/19 04:08:42;;;;;;;14.48;5.65;;;8.00;99.90;;;;;;4965245;28;20034;-71
2024/03/19 04:11:09;;;;;;;9.18;5.65;;;8.00;99.90;;;;;;4967937;28;20023;-71
2024/03/19 04:13:36;;;;;;;10.40;5.80;;;8.10;99.90;;;;;;4970471;28;20062;-71
2024/03/19 04:16:02;;;;;;;10.75;5.63;;;8.00;99.90;;;;;;4973548;28;20042;-71
2024/03/19 04:18:28;;;;;;;12.15;5.72;;;8.00;99.90;;;;;;4972352;28;20449;-71
2024/03/19 04:20:54;;;;;;;12.88;6.00;;;8.10;99.90;;;;;;4974120;28;20109;-71
2024/03/19 04:23:19;;;;;;;17.83;7.32;;;8.20;99.90;;;;;;4971517;28;20030;-71
2024/03/19 04:25:45;;;;;;;15.23;6.97;;;8.30;99.90;;;;;;4972241;28;20066;-71
2024/03/19 04:28:11;;;;;;;14.63;7.97;;;8.30;99.90;;;;;;4971659;28;20039;-71
2024/03/19 04:30:36;;;;;;;12.40;6.68;;;8.40;99.90;;;;;;4983861;28;20510;-71
2024/03/19 04:33:03;;;;;;;14.48;6.32;;;8.50;99.90;;;;;;4973506;28;20575;-71
2024/03/19 04:35:28;;;;;;;13.05;6.85;;;8.50;99.90;;;;;;4969236;28;20023;-72
2024/03/19 04:37:54;;;;;;;12.25;5.90;;;8.60;99.90;;;;;;4972410;28;20041;-71
2024/03/19 04:40:21;;;;;;;13.38;5.68;;;8.40;99.90;;;;;;4969779;28;20034;-71
2024/03/19 04:42:48;;;;;;;11.20;5.82;;;8.20;99.90;;;;;;4973221;28;20030;-71
2024/03/19 04:45:14;;;;;;;11.05;6.32;;;7.90;99.90;;;;;;4969288;28;20067;-71
2024/03/19 04:47:39;;;;;;;9.35;5.50;;;8.00;99.90;;;;;;4968028;28;20069;-72
2024/03/19 04:50:05;;;;;;;9.35;4.53;;;7.90;99.90;;;;;;4967075;28;20024;-71
2024/03/19 04:52:31;;;;;;;11.45;5.47;;;7.90;99.90;;;;;;4968881;28;20024;-72
2024/03/19 04:54:57;;;;;;;9.98;5.57;;;7.80;99.90;;;;;;4948637;28;20551;-71
2024/03/19 04:57:23;;;;;;;11.80;6.40;;;8.00;99.90;;;;;;4955545;28;20035;-71
2024/03/19 04:59:49;;;;;;;13.43;6.22;;;7.90;99.90;;;;;;4971681;28;20488;-71
2024/03/19 05:02:14;;;;;;;10.30;5.00;;;7.90;99.90;;;;;;4962928;28;20062;-71
2024/03/19 05:04:40;;;;;;;11.90;6.55;;;7.90;99.90;;;;;;4966408;28;20109;-71
2024/03/19 05:07:06;;;;;;;7.93;5.20;;;8.00;99.90;;;;;;4969049;28;20109;-71
2024/03/19 05:09:31;;;;;;;9.60;5.30;;;7.90;99.90;;;;;;4972584;28;20034;-71
2024/03/19 05:11:57;;;;;;;10.35;5.75;;;7.80;99.90;;;;;;4969596;28;20042;-71
2024/03/19 05:14:23;;;;;;;12.30;5.68;;;7.80;99.90;;;;;;4974399;28;20416;-71
2024/03/19 05:16:49;;;;;;;12.18;5.63;;;7.80;99.90;;;;;;4951984;28;20543;-71
2024/03/19 05:19:14;;;;;;;9.40;6.22;;;7.80;99.90;;;;;;4972272;28;20114;-71
2024/03/19 05:21:40;;;;;;;11.30;5.45;;;7.70;99.90;;;;;;4967562;28;20053;-71
2024/03/19 05:24:06;;;;;;;13.27;6.15;;;7.80;99.90;;;;;;4970510;28;20039;-71
2024/03/19 05:26:32;;;;;;;21.27;9.77;;;7.80;99.90;;;;;;4967133;28;20035;-71
2024/03/19 05:28:58;;;;;;;16.48;9.98;;;7.80;99.90;;;;;;4971328;28;20015;-71
2024/03/19 05:31:27;;;;;;;13.82;5.93;;;8.00;99.90;;;;;;4968983;28;20029;-71
2024/03/19 05:33:55;;;;;;;12.02;5.05;;;7.80;99.90;;;;;;4971149;28;20054;-71
2024/03/19 05:36:22;;;;;;;12.25;5.60;;;7.70;99.90;;;;;;4942039;28;20983;-71
2024/03/19 05:38:48;;;;;;;15.85;7.38;;;7.70;99.90;;;;;;4971317;28;20034;-70
2024/03/19 05:41:17;;;;;;;20.02;6.78;;;7.60;99.90;;;;;;4966713;28;20402;-70
2024/03/19 05:43:46;;;;;;;14.32;6.50;;;7.50;99.90;;;;;;4970477;28;20019;-70
2024/03/19 05:46:12;;;;;;;10.07;6.57;;;7.60;99.90;;;;;;4969936;28;20403;-71
2024/03/19 05:48:39;;;;;;;12.20;6.28;;;7.70;99.90;;;;;;4971089;28;20081;-70
2024/03/19 05:51:10;;;;;;;11.73;5.75;;;7.80;99.90;;;;;;4958642;28;20027;-70
2024/03/19 05:53:37;;;;;;;15.48;6.78;;;8.00;99.90;;;;;;4964035;28;20023;-71
2024/03/19 05:56:04;;;;;;;27.58;10.65;;;8.00;99.90;;;;;;4964178;28;20027;-71
2024/03/19 05:58:31;;;;;;;13.23;6.75;;;8.00;99.90;;;;;;4965901;28;20106;-72
2024/03/19 06:00:58;;;;;;;23.00;9.63;;;8.10;99.90;;;;;;4970161;28;20061;-71
2024/03/19 06:03:24;;;;;;;14.90;5.85;;;8.10;99.90;;;;;;4972136;28;20077;-72
2024/03/19 06:05:58;;;;;;;14.95;6.10;;;8.10;99.90;;;;;;4962697;28;20054;-69
2024/03/19 06:08:28;;;;;;;9.38;5.32;;;8.00;99.90;;;;;;4963491;28;20033;-72
2024/03/19 06:10:55;;;;;;;9.27;4.90;;;8.00;99.90;;;;;;4972936;28;20530;-70
2024/03/19 06:13:21;;;;;;;14.48;6.13;;;8.20;99.90;;;;;;4971041;28;20890;-71
2024/03/19 06:15:47;;;;;;;11.43;5.75;;;8.00;99.90;;;;;;4948503;28;20077;-72
2024/03/19 06:18:13;;;;;;;14.30;6.30;;;7.90;99.90;;;;;;4970810;28;20039;-71
2024/03/19 06:20:39;;;;;;;12.13;6.40;;;8.10;99.90;;;;;;4985801;28;20061;-71
2024/03/19 06:23:05;;;;;;;11.45;5.82;;;8.20;99.90;;;;;;4973025;28;20500;-71
2024/03/19 06:25:30;;;;;;;19.38;8.23;;;8.10;99.90;;;;;;4959672;28;20094;-71
2024/03/19 06:27:56;;;;;;;17.55;8.15;;;8.10;99.90;;;;;;4970746;28;20391;-71
2024/03/19 06:30:22;;;;;;;12.93;5.68;;;8.20;99.90;;;;;;4970505;28;20038;-70
2024/03/19 06:32:48;;;;;;;14.35;8.02;;;8.20;99.90;;;;;;4970437;28;20106;-71
2024/03/19 06:35:14;;;;;;;18.98;8.15;;;8.30;99.90;;;;;;4962996;28;20542;-71
2024/03/19 06:37:43;;;;;;;27.85;7.65;;;8.30;99.90;;;;;;4962309;28;20029;-71
2024/03/19 06:40:10;;;;;;;15.80;7.18;;;8.30;99.90;;;;;;4971514;28;20019;-75
2024/03/19 06:42:37;;;;;;;17.15;8.80;;;8.40;99.90;;;;;;4965518;28;20048;-72
2024/03/19 06:45:04;;;;;;;14.30;6.97;;;8.30;99.90;;;;;;4968451;28;20031;-72
2024/03/19 06:47:30;;;;;;;20.02;8.35;;;8.40;99.90;;;;;;4964176;28;20027;-71
2024/03/19 06:49:56;;;;;;;22.88;8.10;;;8.30;99.90;;;;;;4967284;28;20391;-71
2024/03/19 06:52:21;;;;;;;17.90;6.80;;;8.40;99.90;;;;;;4965078;28;20042;-72
2024/03/19 06:54:47;;;;;;;29.27;7.57;;;8.50;99.90;;;;;;4974251;28;20027;-72
2024/03/19 06:57:13;;;;;;;19.30;8.75;;;8.40;99.90;;;;;;4970641;28;20046;-71
2024/03/19 06:59:39;;;;;;;21.67;9.80;;;8.50;99.90;;;;;;4972478;28;20073;-72
2024/03/19 07:02:07;;;;;;;17.60;7.07;;;8.60;99.90;;;;;;4969958;28;20038;-71
2024/03/19 07:04:34;;;;;;;18.05;7.30;;;8.60;99.90;;;;;;4963394;28;20122;-72
2024/03/19 07:07:02;;;;;;;17.42;7.22;;;8.80;99.90;;;;;;4970983;28;20033;-72
2024/03/19 07:09:30;;;;;;;14.30;7.28;;;8.70;99.90;;;;;;4955096;28;20031;-71
2024/03/19 07:11:58;;;;;;;21.75;7.35;;;8.70;99.90;;;;;;4970227;28;20033;-72
2024/03/19 07:14:24;;;;;;;12.93;6.82;;;8.90;99.90;;;;;;4966323;28;20045;-55
2024/03/19 07:16:51;;;;;;;12.25;6.32;;;8.90;99.90;;;;;;4971326;28;20038;-57
2024/03/19 07:19:17;;;;;;;12.80;7.15;;;9.00;99.90;;;;;;4975069;28;20090;-57
2024/03/19 07:21:43;;;;;;;18.35;7.85;;;9.00;99.90;;;;;;4970243;28;20038;-57
2024/03/19 07:24:09;;;;;;;17.23;7.15;;;9.10;99.90;;;;;;4962978;28;20045;-57
2024/03/19 07:26:36;;;;;;;14.63;7.22;;;9.10;99.90;;;;;;4961021;28;20058;-58
2024/03/19 07:29:02;;;;;;;14.15;7.00;;;9.20;99.90;;;;;;4974942;28;20077;-71
2024/03/19 07:31:28;;;;;;;16.27;7.45;;;9.20;99.90;;;;;;4961359;28;20026;-72
2024/03/19 07:33:53;;;;;;;14.63;7.10;;;9.30;99.90;;;;;;4973323;28;20099;-71
2024/03/19 07:36:19;;;;;;;11.20;7.18;;;9.40;99.90;;;;;;4966955;28;20076;-71
2024/03/19 07:38:45;;;;;;;20.60;9.77;;;9.80;99.90;;;;;;4974936;28;20077;-71
2024/03/19 07:41:12;;;;;;;20.15;8.57;;;10.00;99.90;;;;;;4973961;28;20049;-70
2024/03/19 07:43:37;;;;;;;22.58;8.77;;;10.20;99.90;;;;;;4974354;28;20061;-72
2024/03/19 07:46:03;;;;;;;24.88;8.45;;;10.40;99.90;;;;;;4967898;28;20067;-72
2024/03/19 07:48:29;;;;;;;21.92;7.78;;;10.50;99.90;;;;;;4974597;28;20105;-72
2024/03/19 07:50:57;;;;;;;20.38;8.35;;;10.70;99.90;;;;;;4973626;28;20081;-72
2024/03/19 07:53:24;;;;;;;22.83;8.20;;;10.70;99.90;;;;;;4973876;28;20038;-72
2024/03/19 07:55:50;;;;;;;16.95;8.25;;;11.10;99.90;;;;;;4961815;28;20046;-71
2024/03/19 07:58:16;;;;;;;18.05;8.48;;;11.00;99.90;;;;;;4973272;28;20046;-72
2024/03/19 08:00:42;;;;;;;18.88;9.20;;;10.90;99.90;;;;;;4969535;28;20506;-72
2024/03/19 08:03:08;;;;;;;18.67;7.82;;;11.10;99.90;;;;;;4971091;28;20045;-72
2024/03/19 08:05:34;;;;;;;17.35;7.55;;;10.80;99.90;;;;;;4970039;28;20035;-72
2024/03/19 08:08:02;;;;;;;17.23;7.55;;;10.90;99.90;;;;;;4970222;28;20042;-72
2024/03/19 08:10:28;;;;;;;24.75;8.23;;;11.10;99.90;;;;;;4955240;28;20018;-72
2024/03/19 08:12:53;;;;;;;19.25;7.68;;;10.90;99.90;;;;;;4969455;28;20424;-72
2024/03/19 08:15:19;;;;;;;14.27;6.90;;;10.80;99.90;;;;;;4971128;28;20027;-71
2024/03/19 08:17:45;;;;;;;15.80;7.85;;;11.10;99.90;;;;;;4968456;28;20575;-72
2024/03/19 08:20:15;;;;;;;12.85;6.05;;;11.30;99.90;;;;;;4973973;28;20038;-72
2024/03/19 08:22:42;;;;;;;16.08;7.03;;;11.10;99.90;;;;;;4966672;28;20132;-72
2024/03/19 08:25:11;;;;;;;16.45;7.57;;;11.30;99.90;;;;;;4954762;28;20019;-70
2024/03/19 08:27:37;;;;;;;13.02;6.78;;;11.60;99.90;;;;;;4958088;28;20067;-72
2024/03/19 08:30:08;;;;;;;13.80;6.93;;;11.80;99.90;;;;;;4972543;28;20027;-72
2024/03/19 08:32:36;;;;;;;13.18;6.70;;;11.40;99.90;;;;;;4965378;28;20034;-72
2024/03/19 08:35:02;;;;;;;10.68;5.68;;;11.10;99.90;;;;;;4971917;28;20078;-70
2024/03/19 08:37:28;;;;;;;19.15;6.95;;;11.20;99.90;;;;;;4966330;28;20123;-72
2024/03/19 08:39:53;;;;;;;12.65;6.30;;;11.40;99.90;;;;;;4973444;28;20126;-71
2024/03/19 08:42:19;;;;;;;15.52;6.03;;;11.30;99.90;;;;;;4966967;28;20035;-71
2024/03/19 08:44:45;;;;;;;15.93;6.97;;;11.50;99.90;;;;;;4972752;28;20033;-70
2024/03/19 08:47:11;;;;;;;19.83;6.97;;;11.60;99.90;;;;;;4965885;28;20062;-70
2024/03/19 08:49:36;;;;;;;18.27;6.68;;;11.50;99.90;;;;;;4964425;28;20038;-70
2024/03/19 08:52:02;;;;;;;13.35;5.85;;;11.70;99.90;;;;;;4958430;28;20542;-71
2024/03/19 08:54:29;;;;;;;24.85;6.40;;;11.70;99.90;;;;;;4954615;28;20074;-70
2024/03/19 08:56:55;;;;;;;12.48;5.80;;;11.70;99.90;;;;;;4966202;28;20041;-71
2024/03/19 08:59:21;;;;;;;10.15;4.82;;;11.90;99.90;;;;;;4973196;28;20495;-71
2024/03/19 09:01:47;;;;;;;14.65;6.32;;;11.90;99.90;;;;;;4948789;28;20038;-71
2024/03/19 09:04:12;;;;;;;10.20;5.10;;;12.10;99.90;;;;;;4972670;28;20031;-71
2024/03/19 09:06:38;;;;;;;12.60;6.20;;;12.10;99.90;;;;;;4949227;28;20050;-71
2024/03/19 09:09:04;;;;;;;13.00;6.10;;;12.30;99.90;;;;;;4972835;28;20460;-70
2024/03/19 09:11:31;;;;;;;16.08;5.85;;;12.50;99.90;;;;;;4958542;28;20514;-70
2024/03/19 09:14:00;;;;;;;12.80;6.15;;;12.20;99.90;;;;;;4955581;28;20034;-71
2024/03/19 09:16:26;;;;;;;12.88;5.95;;;12.20;99.90;;;;;;4964183;28;20034;-70
2024/03/19 09:18:52;;;;;;;11.35;5.47;;;12.50;99.90;;;;;;4972668;28;20019;-70
2024/03/19 09:21:18;;;;;;;13.70;5.82;;;12.90;99.90;;;;;;4965977;28;20043;-71
2024/03/19 09:23:44;;;;;;;15.93;5.80;;;13.30;99.90;;;;;;4972408;28;20090;-71
2024/03/19 09:26:10;;;;;;;18.73;6.25;;;13.60;99.90;;;;;;4965941;28;20035;-71
2024/03/19 09:28:35;;;;;;;9.30;4.72;;;12.90;99.90;;;;;;4972939;28;20647;-71
2024/03/19 09:31:02;;;;;;;14.57;5.60;;;13.60;99.90;;;;;;4966550;28;20035;-70
2024/03/19 09:33:28;;;;;;;9.05;4.60;;;13.30;99.90;;;;;;4964480;28;20165;-71
2024/03/19 09:35:55;;;;;;;11.57;5.70;;;13.40;99.90;;;;;;4965602;28;20023;-71
2024/03/19 09:38:21;;;;;;;13.73;5.47;;;14.00;99.90;;;;;;4970112;28;20529;-70
2024/03/19 09:41:03;;;;;;;11.00;4.97;;;13.90;99.90;;;;;;4951081;28;20031;-70
2024/03/19 09:43:36;;;;;;;9.60;4.97;;;14.10;99.90;;;;;;4963356;28;20026;-69
2024/03/19 09:46:03;;;;;;;12.63;5.03;;;13.60;99.90;;;;;;4980781;28;20555;-70
2024/03/19 09:48:31;;;;;;;12.82;5.15;;;13.50;99.90;;;;;;4971052;28;20125;-70
2024/03/19 09:51:01;;;;;;;12.00;5.07;;;13.90;99.90;;;;;;4949664;28;20059;-70
2024/03/19 09:53:29;;;;;;;15.35;6.05;;;14.00;99.90;;;;;;4970854;28;20045;-70
2024/03/19 09:55:55;;;;;;;10.43;4.43;;;13.70;99.90;;;;;;4981891;28;20062;-70
2024/03/19 09:58:23;;;;;;;10.43;5.07;;;13.70;99.90;;;;;;4971442;28;20034;-70
2024/03/19 10:00:52;;;;;;;9.43;4.57;;;13.40;99.90;;;;;;4966811;28;20034;-70
2024/03/19 10:03:18;;;;;;;11.93;6.30;;;13.70;99.90;;;;;;4970392;28;20070;-70
2024/03/19 10:05:44;;;;;;;14.20;4.95;;;13.70;99.90;;;;;;4967355;28;20130;-70
2024/03/19 10:08:15;;;;;;;12.77;4.53;;;14.00;99.90;;;;;;4968610;28;20023;-70
2024/03/19 10:10:45;;;;;;;14.00;4.83;;;14.00;99.90;;;;;;4971087;28;20026;-70
2024/03/19 10:13:12;;;;;;;10.63;5.82;;;13.60;99.90;;;;;;4970639;28;20042;-70
2024/03/19 10:15:38;;;;;;;11.13;4.63;;;13.40;99.90;;;;;;4967109;28;20476;-70
2024/03/19 10:18:07;;;;;;;7.97;4.60;;;13.90;99.90;;;;;;4967767;28;20030;-70
2024/03/19 10:20:36;;;;;;;12.95;4.78;;;13.80;99.90;;;;;;4969772;28;20525;-70
2024/03/19 10:23:05;;;;;;;8.38;4.28;;;13.70;99.90;;;;;;4959701;28;20139;-70
2024/03/19 10:25:32;;;;;;;7.75;4.13;;;13.20;99.90;;;;;;4968800;28;20126;-71
2024/03/19 10:27:57;;;;;;;8.77;4.70;;;12.90;99.90;;;;;;4968360;28;20114;-71
2024/03/19 10:30:23;;;;;;;9.40;5.03;;;13.40;99.90;;;;;;4968080;28;20153;-71
2024/03/19 10:32:52;;;;;;;11.00;4.38;;;13.80;99.90;;;;;;4971832;28;20034;-70
2024/03/19 10:35:23;;;;;;;6.50;3.72;;;13.70;99.90;;;;;;4975112;28;20027;-70
2024/03/19 10:37:50;;;;;;;;;;;14.10;99.90;;;;;;4958673;28;20979;-70
2024/03/19 10:40:18;;;;;;;6.05;3.65;;;14.10;99.90;;;;;;4957857;28;19914;-70
2024/03/19 10:42:47;;;;;;;7.88;4.60;;;14.10;99.90;;;;;;4960746;28;20043;-70
2024/03/19 10:45:19;;;;;;;9.32;4.30;;;14.40;99.90;;;;;;4974822;28;20106;-70
2024/03/19 10:47:48;;;;;;;7.05;3.90;;;13.80;99.90;;;;;;4961344;28;22147;-71
2024/03/19 10:50:17;;;;;;;6.57;3.67;;;14.10;99.90;;;;;;4958672;28;20496;-71
2024/03/19 10:52:47;;;;;;;7.63;3.92;;;14.50;99.90;;;;;;4968147;28;20476;-71
2024/03/19 10:55:15;;;;;;;7.57;3.53;;;14.70;99.90;;;;;;4974271;28;20035;-71
2024/03/19 10:57:41;;;;;;;7.75;4.00;;;14.30;99.90;;;;;;4972363;28;20030;-71
2024/03/19 11:00:24;;;;;;;6.22;3.25;;;13.70;99.90;;;;;;4974165;28;20030;-71
2024/03/19 11:02:54;;;;;;;7.03;3.42;;;14.20;99.90;;;;;;4969027;28;20039;-70
2024/03/19 11:05:21;;;;;;;8.75;3.63;;;14.20;99.90;;;;;;4972591;28;20039;-71
2024/03/19 11:07:51;;;;;;;9.80;4.10;;;14.10;99.90;;;;;;4968501;28;20027;-71
2024/03/19 11:10:37;;;;;;;8.70;4.05;;;14.40;99.90;;;;;;4981323;28;20019;-71
2024/03/19 11:13:08;;;;;;;8.68;3.90;;;14.40;99.90;;;;;;4970682;28;20085;-70
2024/03/19 11:15:40;;;;;;;11.85;5.07;;;15.00;99.90;;;;;;4964601;28;20027;-71
2024/03/19 11:18:12;;;;;;;7.60;3.78;;;15.80;99.90;;;;;;4972025;28;20043;-70
2024/03/19 11:20:51;;;;;;;8.85;3.55;;;15.80;99.90;;;;;;4963931;28;20110;-70
2024/03/19 11:23:27;;;;;;;7.43;3.53;;;16.00;99.90;;;;;;4972083;28;20471;-71
2024/03/19 11:25:54;;;;;;;10.52;4.43;;;16.10;99.90;;;;;;4968214;28;20020;-71
2024/03/19 11:28:24;;;;;;;7.65;3.65;;;15.90;99.90;;;;;;4971518;28;20058;-72
2024/03/19 11:31:04;;;;;;;8.93;3.92;;;16.00;99.90;;;;;;4968694;28;20023;-71
2024/03/19 11:33:38;;;;;;;11.15;4.40;;;15.70;99.90;;;;;;4965609;28;20117;-71
2024/03/19 11:36:05;;;;;;;7.95;4.03;;;15.70;99.90;;;;;;4966162;28;20510;-71
2024/03/19 11:38:31;;;;;;;7.32;3.83;;;15.60;99.90;;;;;;4974846;28;20046;-70
2024/03/19 11:40:58;;;;;;;10.13;3.72;;;15.70;99.90;;;;;;4968411;28;20071;-70
2024/03/19 11:43:25;;;;;;;7.80;3.47;;;15.80;99.90;;;;;;4973627;28;20392;-71
2024/03/19 11:45:51;;;;;;;6.65;3.63;;;16.10;99.90;;;;;;4968571;28;20034;-70
2024/03/19 11:48:22;;;;;;;5.97;3.97;;;16.10;99.90;;;;;;4972671;28;20027;-70
2024/03/19 11:50:53;;;;;;;;;;;16.10;99.90;;;;;;4985024;28;20027;-69
2024/03/19 11:53:21;;;;;;;12.57;4.55;;;15.60;99.90;;;;;;4955822;28;19917;-69
2024/03/19 11:55:49;;;;;;;7.18;3.40;;;15.70;99.90;;;;;;4968141;28;20066;-70
2024/03/19 11:58:15;;;;;;;6.90;2.90;;;16.30;99.90;;;;;;4964335;28;20023;-70
2024/03/19 12:00:42;;;;;;;8.13;3.95;;;16.60;99.90;;;;;;4985419;28;20019;-70
2024/03/19 12:03:09;;;;;;;6.47;3.50;;;17.00;99.90;;;;;;4968774;28;20093;-70
2024/03/19 12:05:35;;;;;;;6.78;3.55;;;17.90;99.90;;;;;;4961980;28;20030;-70
2024/03/19 12:08:01;;;;;;;5.88;3.42;;;18.60;99.90;;;;;;4970247;28;20027;-70
2024/03/19 12:10:30;;;;;;;7.63;3.42;;;18.40;99.90;;;;;;4971041;28;20018;-70
2024/03/19 12:12:56;;;;;;;6.15;3.33;;;17.20;99.90;;;;;;4972504;28;20032;-70
2024/03/19 12:15:24;;;;;;;7.25;3.58;;;17.40;99.90;;;;;;4961957;28;20042;-70
2024/03/19 12:17:53;;;;;;;10.07;3.53;;;17.10;99.90;;;;;;4962954;28;20118;-70
2024/03/19 12:20:20;;;;;;;5.28;2.85;;;17.70;99.90;;;;;;4968557;28;20019;-70
2024/03/19 12:22:47;;;;;;;6.88;3.35;;;17.60;99.90;;;;;;4967366;28;20061;-70
2024/03/19 12:25:18;;;;;;;7.45;3.92;;;17.80;99.90;;;;;;4971277;28;20026;-70
2024/03/19 12:27:44;;;;;;;9.05;3.28;;;18.20;99.90;;;;;;4966398;28;20070;-70
2024/03/19 12:30:21;;;;;;;8.70;3.38;;;17.20;99.90;;;;;;4971554;28;20041;-71
2024/03/19 12:33:20;;;;;;;11.55;3.85;;;17.10;99.90;;;;;;4967760;28;20132;-70
2024/03/19 12:35:40;;;;;;;10.18;3.42;;;17.90;99.90;;;;;;4954222;28;20042;-71
2024/03/19 12:38:11;;;;;;;9.07;3.70;;;18.00;99.90;;;;;;4969494;28;20027;-72
2024/03/19 12:40:38;;;;;;;9.32;3.13;;;17.90;99.90;;;;;;4961037;28;20026;-71
2024/03/19 12:43:04;;;;;;;6.57;2.92;;;16.90;99.90;;;;;;4969116;28;20077;-71
2024/03/19 12:45:31;;;;;;;6.15;2.92;;;17.80;99.90;;;;;;4970154;28;20018;-73